createdAt,value
2017-09-17T00:02:00.627Z,87.40
2017-09-17T00:04:28.977Z,88.00
2017-09-17T00:06:57.335Z,88.10
2017-09-17T00:09:26.116Z,88.30
2017-09-17T00:11:54.467Z,88.30
2017-09-17T00:14:22.848Z,88.60
2017-09-17T00:16:51.212Z,89.10
2017-09-17T00:19:19.668Z,89.30
2017-09-17T00:21:48.273Z,89.70
2017-09-17T00:24:16.929Z,89.60
2017-09-17T00:26:45.267Z,90.00
2017-09-17T00:29:14.584Z,89.60
2017-09-17T00:31:42.935Z,89.60
2017-09-17T00:34:11.512Z,89.70
2017-09-17T00:36:40.245Z,89.70
2017-09-17T00:39:08.632Z,89.60
2017-09-17T00:41:36.998Z,89.80
2017-09-17T00:44:05.356Z,89.70
2017-09-17T00:46:33.720Z,89.40
2017-09-17T00:49:02.387Z,89.80
2017-09-17T00:51:31.176Z,89.70
2017-09-17T00:53:59.055Z,89.80
2017-09-17T00:56:27.403Z,90.00
2017-09-17T00:58:56.185Z,89.50
2017-09-17T01:01:24.544Z,89.50
2017-09-17T01:03:52.912Z,89.50
2017-09-17T01:06:21.272Z,89.70
2017-09-17T01:08:49.620Z,89.70
2017-09-17T01:11:17.883Z,90.00
2017-09-17T01:13:47.012Z,90.00
2017-09-17T01:16:15.357Z,90.00
2017-09-17T01:18:43.760Z,90.00
2017-09-17T01:21:11.932Z,90.00
2017-09-17T01:23:41.055Z,90.00
2017-09-17T01:26:09.433Z,90.00
2017-09-17T01:28:37.810Z,89.90
2017-09-17T01:31:06.609Z,90.20
2017-09-17T01:33:34.968Z,90.10
2017-09-17T01:36:03.416Z,89.50
2017-09-17T01:38:31.754Z,90.20
2017-09-17T01:40:59.917Z,90.10
2017-09-17T01:43:28.427Z,90.00
2017-09-17T01:45:57.533Z,89.90
2017-09-17T01:48:25.912Z,89.80
2017-09-17T01:50:54.310Z,90.00
2017-09-17T01:53:22.670Z,90.00
2017-09-17T01:55:51.043Z,89.80
2017-09-17T01:58:19.396Z,90.00
2017-09-17T02:00:48.003Z,89.90
2017-09-17T02:03:16.346Z,90.60
2017-09-17T02:05:44.707Z,90.20
2017-09-17T02:08:13.055Z,90.00
2017-09-17T02:10:41.408Z,90.00
2017-09-17T02:13:09.775Z,90.00
2017-09-17T02:15:38.161Z,89.30
2017-09-17T02:18:06.933Z,89.30
2017-09-17T02:20:35.307Z,88.70
2017-09-17T02:23:03.645Z,88.90
2017-09-17T02:25:32.771Z,88.90
2017-09-17T02:28:01.256Z,88.80
2017-09-17T02:30:29.610Z,88.80
2017-09-17T02:32:57.962Z,88.80
2017-09-17T02:35:26.322Z,89.00
2017-09-17T02:37:54.671Z,89.00
2017-09-17T02:40:22.624Z,90.10
2017-09-17T02:42:51.044Z,89.10
2017-09-17T02:45:19.411Z,89.10
2017-09-17T02:47:47.763Z,88.90
2017-09-17T02:50:16.231Z,88.80
2017-09-17T02:52:44.667Z,88.70
2017-09-17T02:55:13.018Z,88.80
2017-09-17T02:57:41.373Z,88.90
2017-09-17T03:00:09.744Z,88.60
2017-09-17T03:02:38.118Z,88.40
2017-09-17T03:05:06.467Z,88.20
2017-09-17T03:07:34.863Z,88.30
2017-09-17T03:10:03.210Z,88.10
2017-09-17T03:12:31.542Z,87.90
2017-09-17T03:14:59.908Z,88.20
2017-09-17T03:17:28.262Z,88.10
2017-09-17T03:19:56.627Z,88.30
2017-09-17T03:22:25.069Z,88.90
2017-09-17T03:24:53.428Z,89.40
2017-09-17T03:27:21.804Z,88.90
2017-09-17T03:29:50.146Z,88.70
2017-09-17T03:32:18.494Z,89.10
2017-09-17T03:34:46.892Z,89.20
2017-09-17T03:37:15.270Z,89.20
2017-09-17T03:39:43.506Z,89.00
2017-09-17T03:42:11.164Z,88.90
2017-09-17T03:44:39.534Z,89.30
2017-09-17T03:47:07.954Z,89.30
2017-09-17T03:49:36.948Z,89.30
2017-09-17T03:52:05.309Z,89.40
2017-09-17T03:54:33.665Z,89.40
2017-09-17T03:57:02.010Z,89.60
2017-09-17T03:59:29.680Z,89.80
2017-09-17T04:01:58.192Z,89.60
2017-09-17T04:04:26.538Z,89.50
2017-09-17T04:06:55.082Z,89.80
2017-09-17T04:09:23.645Z,90.00
2017-09-17T04:11:51.987Z,90.00
2017-09-17T04:14:21.099Z,90.00
2017-09-17T04:16:49.455Z,89.90
2017-09-17T04:19:17.806Z,90.00
2017-09-17T04:21:46.162Z,89.70
2017-09-17T04:24:14.321Z,89.70
2017-09-17T04:26:42.680Z,89.70
2017-09-17T04:29:11.021Z,89.90
2017-09-17T04:31:40.622Z,89.30
2017-09-17T04:34:08.983Z,89.20
2017-09-17T04:36:37.149Z,89.10
2017-09-17T04:39:05.180Z,89.30
2017-09-17T04:41:33.522Z,89.50
2017-09-17T04:44:01.871Z,89.00
2017-09-17T04:46:30.218Z,89.30
2017-09-17T04:48:59.418Z,89.20
2017-09-17T04:51:27.779Z,88.80
2017-09-17T04:53:56.114Z,88.80
2017-09-17T04:56:24.454Z,88.50
2017-09-17T04:58:52.801Z,88.40
2017-09-17T05:01:21.703Z,89.00
2017-09-17T05:03:50.373Z,89.10
2017-09-17T05:06:18.709Z,88.40
2017-09-17T05:08:47.827Z,89.30
2017-09-17T05:11:16.174Z,89.30
2017-09-17T05:13:45.299Z,90.00
2017-09-17T05:16:13.663Z,89.80
2017-09-17T05:18:42.018Z,89.50
2017-09-17T05:21:10.370Z,89.40
2017-09-17T05:23:38.916Z,89.60
2017-09-17T05:26:07.277Z,89.60
2017-09-17T05:28:35.737Z,89.90
2017-09-17T05:31:04.082Z,89.30
2017-09-17T05:33:32.267Z,89.40
2017-09-17T05:36:00.428Z,89.40
2017-09-17T05:38:28.785Z,89.70
2017-09-17T05:40:57.142Z,89.30
2017-09-17T05:43:25.481Z,89.60
2017-09-17T05:45:53.844Z,89.60
2017-09-17T05:48:22.203Z,89.50
2017-09-17T05:50:50.801Z,89.40
2017-09-17T05:53:19.146Z,89.10
2017-09-17T05:55:47.503Z,89.60
2017-09-17T05:58:15.842Z,89.60
2017-09-17T06:00:44.230Z,89.50
2017-09-17T06:03:12.573Z,90.00
2017-09-17T06:05:40.923Z,89.80
2017-09-17T06:08:09.303Z,89.90
2017-09-17T06:10:37.893Z,90.00
2017-09-17T06:13:06.245Z,89.80
2017-09-17T06:15:34.639Z,89.80
2017-09-17T06:18:04.639Z,89.90
2017-09-17T06:20:33.097Z,90.00
2017-09-17T06:23:01.454Z,89.80
2017-09-17T06:25:29.828Z,90.00
2017-09-17T06:27:58.763Z,90.00
2017-09-17T06:30:27.116Z,90.00
2017-09-17T06:32:55.489Z,89.10
2017-09-17T06:35:23.822Z,89.70
2017-09-17T06:37:52.352Z,88.20
2017-09-17T06:40:20.528Z,88.40
2017-09-17T06:42:48.880Z,88.10
2017-09-17T06:45:17.167Z,88.10
2017-09-17T06:47:45.516Z,88.10
2017-09-17T06:50:13.865Z,87.60
2017-09-17T06:52:42.218Z,87.80
2017-09-17T06:55:10.772Z,87.80
2017-09-17T06:57:39.206Z,87.90
2017-09-17T07:00:07.568Z,87.60
2017-09-17T07:02:36.698Z,87.40
2017-09-17T07:05:05.046Z,87.40
2017-09-17T07:07:34.907Z,86.70
2017-09-17T07:10:03.276Z,86.60
2017-09-17T07:12:31.621Z,86.60
2017-09-17T07:15:00.755Z,85.80
2017-09-17T07:17:29.104Z,85.80
2017-09-17T07:19:57.501Z,85.60
2017-09-17T07:22:26.001Z,85.30
2017-09-17T07:24:54.357Z,85.20
2017-09-17T07:27:22.706Z,85.30
2017-09-17T07:29:51.079Z,84.60
2017-09-17T07:32:20.013Z,84.50
2017-09-17T07:34:48.431Z,84.40
2017-09-17T07:37:17.561Z,85.10
2017-09-17T07:39:45.917Z,84.90
2017-09-17T07:42:15.547Z,84.10
2017-09-17T07:44:43.897Z,84.10
2017-09-17T07:47:12.834Z,83.90
2017-09-17T07:49:41.186Z,83.90
2017-09-17T07:52:09.592Z,83.20
2017-09-17T07:54:37.960Z,83.60
2017-09-17T07:57:06.153Z,83.00
2017-09-17T07:59:34.543Z,82.80
2017-09-17T08:02:02.928Z,82.30
2017-09-17T08:04:32.076Z,81.70
2017-09-17T08:07:00.254Z,81.70
2017-09-17T08:09:28.646Z,81.60
2017-09-17T08:11:57.006Z,80.80
2017-09-17T08:14:25.415Z,80.20
2017-09-17T08:16:53.844Z,80.40
2017-09-17T08:19:22.271Z,80.10
2017-09-17T08:21:50.462Z,79.40
2017-09-17T08:24:19.400Z,78.20
2017-09-17T08:26:47.773Z,78.20
2017-09-17T08:29:16.328Z,77.80
2017-09-17T08:31:44.679Z,78.60
2017-09-17T08:34:13.902Z,77.70
2017-09-17T08:36:42.257Z,77.80
2017-09-17T08:39:10.630Z,78.50
2017-09-17T08:41:39.105Z,78.00
2017-09-17T08:44:08.238Z,78.80
2017-09-17T08:46:36.635Z,78.80
2017-09-17T08:49:05.003Z,79.20
2017-09-17T08:51:33.979Z,78.30
2017-09-17T08:54:02.348Z,77.50
2017-09-17T08:56:30.716Z,77.30
2017-09-17T08:58:59.242Z,76.70
2017-09-17T09:01:26.913Z,76.80
2017-09-17T09:03:55.498Z,76.20
2017-09-17T09:06:24.156Z,75.80
2017-09-17T09:08:52.518Z,73.90
2017-09-17T09:11:20.893Z,74.20
2017-09-17T09:13:49.248Z,73.50
2017-09-17T09:16:17.626Z,72.90
2017-09-17T09:18:46.006Z,72.60
2017-09-17T09:21:14.577Z,72.70
2017-09-17T09:23:42.926Z,72.30
2017-09-17T09:26:11.298Z,70.70
2017-09-17T09:28:39.657Z,71.10
2017-09-17T09:31:08.023Z,71.40
2017-09-17T09:33:36.383Z,71.00
2017-09-17T09:36:04.734Z,71.30
2017-09-17T09:38:33.417Z,70.80
2017-09-17T09:41:01.793Z,70.50
2017-09-17T09:43:30.151Z,69.90
2017-09-17T09:45:58.601Z,69.10
2017-09-17T09:48:26.993Z,69.80
2017-09-17T09:50:55.557Z,69.70
2017-09-17T09:53:23.919Z,68.70
2017-09-17T09:55:52.353Z,67.40
2017-09-17T09:58:20.703Z,66.90
2017-09-17T10:00:49.833Z,68.20
2017-09-17T10:03:18.186Z,68.20
2017-09-17T10:05:46.550Z,66.80
2017-09-17T10:08:15.663Z,67.00
2017-09-17T10:10:44.248Z,67.00
2017-09-17T10:13:12.723Z,66.40
2017-09-17T10:15:41.076Z,66.90
2017-09-17T10:18:10.226Z,67.00
2017-09-17T10:20:38.802Z,67.00
2017-09-17T10:23:07.156Z,68.10
2017-09-17T10:25:35.627Z,69.30
2017-09-17T10:28:04.312Z,68.90
2017-09-17T10:30:32.709Z,69.00
2017-09-17T10:33:01.220Z,68.50
2017-09-17T10:35:29.579Z,68.00
2017-09-17T10:37:57.951Z,67.90
2017-09-17T10:40:26.331Z,67.70
2017-09-17T10:42:54.978Z,67.40
2017-09-17T10:45:23.362Z,66.80
2017-09-17T10:47:51.742Z,67.70
2017-09-17T10:50:20.134Z,67.40
2017-09-17T10:52:48.542Z,67.90
2017-09-17T10:55:16.893Z,68.20
2017-09-17T10:57:45.216Z,67.00
2017-09-17T11:00:14.344Z,68.60
2017-09-17T11:02:42.746Z,68.60
2017-09-17T11:05:12.618Z,70.40
2017-09-17T11:07:41.094Z,70.40
2017-09-17T11:10:10.292Z,70.00
2017-09-17T11:12:38.665Z,68.50
2017-09-17T11:15:07.141Z,67.50
2017-09-17T11:17:35.826Z,64.70
2017-09-17T11:20:04.175Z,64.50
2017-09-17T11:22:33.500Z,63.70
2017-09-17T11:25:01.879Z,63.70
2017-09-17T11:27:30.354Z,63.10
2017-09-17T11:29:59.036Z,63.10
2017-09-17T11:32:27.416Z,63.10
2017-09-17T11:34:55.812Z,63.10
2017-09-17T11:37:24.233Z,63.50
2017-09-17T11:39:54.126Z,60.70
2017-09-17T11:42:23.283Z,60.70
2017-09-17T11:44:51.644Z,59.90
2017-09-17T11:47:20.022Z,59.70
2017-09-17T11:49:48.429Z,58.40
2017-09-17T11:52:17.651Z,57.20
2017-09-17T11:54:46.044Z,57.20
2017-09-17T11:57:15.162Z,56.90
2017-09-17T11:59:43.514Z,56.90
2017-09-17T12:02:12.016Z,56.80
2017-09-17T12:04:40.359Z,55.80
2017-09-17T12:07:08.721Z,56.20
2017-09-17T12:09:37.144Z,55.80
2017-09-17T12:12:05.538Z,53.20
2017-09-17T12:14:34.037Z,51.80
2017-09-17T12:17:02.582Z,50.90
2017-09-17T12:19:31.122Z,50.80
2017-09-17T12:21:59.491Z,51.80
2017-09-17T12:24:29.421Z,51.60
2017-09-17T12:26:59.462Z,51.40
2017-09-17T12:29:29.786Z,52.50
2017-09-17T12:31:58.472Z,52.50
2017-09-17T12:34:26.949Z,53.50
2017-09-17T12:36:55.521Z,53.40
2017-09-17T12:39:24.010Z,52.80
2017-09-17T12:41:53.834Z,52.50
2017-09-17T12:44:22.816Z,52.50
2017-09-17T12:46:51.186Z,52.00
2017-09-17T12:49:21.608Z,53.10
2017-09-17T12:51:50.620Z,52.20
2017-09-17T12:54:19.076Z,51.70
2017-09-17T12:56:47.449Z,51.20
2017-09-17T12:59:15.937Z,51.60
2017-09-17T13:01:44.286Z,51.60
2017-09-17T13:04:12.641Z,50.70
2017-09-17T13:06:40.815Z,51.10
2017-09-17T13:09:09.967Z,51.40
2017-09-17T13:11:38.356Z,51.40
2017-09-17T13:14:06.731Z,52.60
2017-09-17T13:16:35.097Z,52.10
2017-09-17T13:19:03.550Z,51.00
2017-09-17T13:21:32.143Z,51.80
2017-09-17T13:24:00.523Z,52.00
2017-09-17T13:26:29.101Z,50.60
2017-09-17T13:28:57.510Z,49.40
2017-09-17T13:31:25.945Z,49.50
2017-09-17T13:33:54.484Z,49.40
2017-09-17T13:36:22.842Z,48.50
2017-09-17T13:38:51.194Z,49.70
2017-09-17T13:41:19.388Z,49.80
2017-09-17T13:43:47.562Z,49.20
2017-09-17T13:46:16.534Z,48.80
2017-09-17T13:48:44.726Z,48.20
2017-09-17T13:51:13.100Z,47.90
2017-09-17T13:53:41.298Z,48.30
2017-09-17T13:56:10.259Z,47.00
2017-09-17T13:58:38.435Z,47.00
2017-09-17T14:01:13.026Z,47.90
2017-09-17T14:03:41.655Z,47.90
2017-09-17T14:06:14.208Z,48.00
2017-09-17T14:08:45.036Z,48.00
2017-09-17T14:11:15.025Z,46.90
2017-09-17T14:13:43.194Z,47.00
2017-09-17T14:16:11.386Z,47.50
2017-09-17T14:18:39.569Z,47.00
2017-09-17T14:21:07.752Z,47.70
2017-09-17T14:23:36.124Z,47.20
2017-09-17T14:26:04.524Z,48.20
2017-09-17T14:28:33.030Z,48.60
2017-09-17T14:31:01.231Z,48.20
2017-09-17T14:33:29.599Z,48.70
2017-09-17T14:35:58.768Z,49.40
2017-09-17T14:38:27.146Z,49.60
2017-09-17T14:40:55.625Z,49.10
2017-09-17T14:43:24.055Z,49.40
2017-09-17T14:45:52.422Z,49.20
2017-09-17T14:48:20.784Z,49.20
2017-09-17T14:50:49.195Z,49.20
2017-09-17T14:53:18.342Z,48.40
2017-09-17T14:55:47.745Z,48.40
2017-09-17T14:58:17.124Z,48.80
2017-09-17T15:00:45.559Z,48.50
2017-09-17T15:03:16.007Z,48.30
2017-09-17T15:05:44.473Z,48.80
2017-09-17T15:08:14.290Z,49.30
2017-09-17T15:10:42.643Z,49.20
2017-09-17T15:13:11.005Z,49.50
2017-09-17T15:15:39.541Z,49.70
2017-09-17T15:18:07.898Z,50.10
2017-09-17T15:20:37.197Z,48.90
2017-09-17T15:23:05.697Z,48.50
2017-09-17T15:25:34.318Z,49.40
2017-09-17T15:28:03.230Z,49.10
2017-09-17T15:30:33.094Z,48.90
2017-09-17T15:33:05.785Z,47.90
2017-09-17T15:35:35.034Z,47.50
2017-09-17T15:38:04.208Z,48.00
2017-09-17T15:40:33.523Z,48.90
2017-09-17T15:43:02.838Z,48.60
2017-09-17T15:45:31.402Z,48.60
2017-09-17T15:47:59.831Z,49.40
2017-09-17T15:50:28.231Z,50.00
2017-09-17T15:52:56.652Z,48.80
2017-09-17T15:55:24.831Z,49.00
2017-09-17T15:57:53.402Z,48.50
2017-09-17T16:00:21.766Z,49.30
2017-09-17T16:02:50.136Z,49.10
2017-09-17T16:05:18.532Z,48.50
2017-09-17T16:07:46.913Z,48.80
2017-09-17T16:10:15.794Z,49.00
2017-09-17T16:12:44.724Z,49.50
2017-09-17T16:15:13.021Z,50.20
2017-09-17T16:17:41.595Z,50.30
2017-09-17T16:20:10.002Z,49.60
2017-09-17T16:22:39.019Z,50.30
2017-09-17T16:25:07.195Z,50.60
2017-09-17T16:27:36.690Z,51.10
2017-09-17T16:30:05.960Z,50.70
2017-09-17T16:32:35.151Z,51.30
2017-09-17T16:35:03.548Z,51.10
2017-09-17T16:37:31.894Z,51.40
2017-09-17T16:40:02.075Z,51.90
2017-09-17T16:42:30.516Z,52.30
2017-09-17T16:44:58.893Z,52.80
2017-09-17T16:47:27.887Z,54.10
2017-09-17T16:49:56.454Z,54.10
2017-09-17T16:52:24.639Z,54.00
2017-09-17T16:54:53.018Z,54.40
2017-09-17T16:57:21.448Z,54.70
2017-09-17T16:59:49.826Z,55.10
2017-09-17T17:02:18.959Z,55.70
2017-09-17T17:04:47.138Z,55.70
2017-09-17T17:07:15.320Z,56.10
2017-09-17T17:09:43.695Z,56.40
2017-09-17T17:12:12.064Z,57.60
2017-09-17T17:14:40.443Z,57.80
2017-09-17T17:17:08.803Z,57.60
2017-09-17T17:19:37.004Z,58.00
2017-09-17T17:22:05.188Z,58.70
2017-09-17T17:24:33.561Z,59.30
2017-09-17T17:27:01.949Z,59.60
2017-09-17T17:29:30.319Z,59.70
2017-09-17T17:31:58.750Z,60.40
2017-09-17T17:34:27.142Z,60.60
2017-09-17T17:36:55.533Z,60.60
2017-09-17T17:39:24.191Z,61.50
2017-09-17T17:41:52.567Z,60.40
2017-09-17T17:44:20.942Z,60.80
2017-09-17T17:46:49.417Z,61.10
2017-09-17T17:49:17.763Z,62.20
2017-09-17T17:51:46.914Z,57.70
2017-09-17T17:54:15.292Z,57.80
2017-09-17T17:56:43.859Z,58.40
2017-09-17T17:59:12.297Z,63.00
2017-09-17T18:01:40.666Z,70.50
2017-09-17T18:04:09.807Z,74.10
2017-09-17T18:06:38.192Z,74.10
2017-09-17T18:09:06.549Z,74.50
2017-09-17T18:11:34.730Z,75.70
2017-09-17T18:14:03.296Z,75.60
2017-09-17T18:16:31.734Z,77.20
2017-09-17T18:19:00.208Z,78.30
2017-09-17T18:21:28.728Z,77.30
2017-09-17T18:23:57.078Z,77.70
2017-09-17T18:26:25.592Z,77.90
2017-09-17T18:28:53.761Z,76.20
2017-09-17T18:31:22.143Z,75.40
2017-09-17T18:33:50.526Z,75.30
2017-09-17T18:36:18.939Z,76.60
2017-09-17T18:38:48.093Z,77.50
2017-09-17T18:41:17.003Z,77.40
2017-09-17T18:43:45.371Z,75.30
2017-09-17T18:46:13.741Z,74.50
2017-09-17T18:48:42.112Z,77.40
2017-09-17T18:51:15.281Z,78.40
2017-09-17T18:53:43.892Z,75.90
2017-09-17T18:56:12.442Z,74.40
2017-09-17T18:58:40.883Z,73.50
2017-09-17T19:01:09.284Z,72.90
2017-09-17T19:03:37.632Z,74.30
2017-09-17T19:06:06.971Z,78.80
2017-09-17T19:08:35.319Z,78.80
2017-09-17T19:11:04.491Z,79.00
2017-09-17T19:13:34.367Z,80.10
2017-09-17T19:16:02.729Z,80.00
2017-09-17T19:18:30.907Z,80.60
2017-09-17T19:20:59.377Z,81.00
2017-09-17T19:23:27.772Z,80.50
2017-09-17T19:25:56.366Z,79.80
2017-09-17T19:28:24.784Z,80.60
2017-09-17T19:30:54.029Z,80.20
2017-09-17T19:33:22.230Z,80.20
2017-09-17T19:35:50.430Z,79.90
2017-09-17T19:38:19.594Z,82.30
2017-09-17T19:40:47.959Z,82.20
2017-09-17T19:43:16.483Z,82.40
2017-09-17T19:45:44.855Z,82.00
2017-09-17T19:48:14.009Z,82.70
2017-09-17T19:50:43.923Z,82.80
2017-09-17T19:53:12.290Z,82.80
2017-09-17T19:55:40.678Z,82.50
2017-09-17T19:58:09.051Z,82.90
2017-09-17T20:00:37.436Z,81.60
2017-09-17T20:03:05.828Z,80.70
2017-09-17T20:05:34.202Z,81.30
2017-09-17T20:08:02.431Z,82.80
2017-09-17T20:10:30.815Z,83.30
2017-09-17T20:12:59.198Z,81.80
2017-09-17T20:15:27.561Z,81.40
2017-09-17T20:17:55.947Z,80.90
2017-09-17T20:20:24.336Z,82.10
2017-09-17T20:22:52.768Z,81.10
2017-09-17T20:25:21.146Z,82.10
2017-09-17T20:27:49.624Z,82.60
2017-09-17T20:30:18.033Z,82.70
2017-09-17T20:32:46.505Z,82.30
2017-09-17T20:35:14.898Z,82.50
2017-09-17T20:37:43.259Z,82.30
2017-09-17T20:40:11.652Z,81.90
2017-09-17T20:42:40.034Z,81.80
2017-09-17T20:45:09.253Z,80.30
2017-09-17T20:47:37.628Z,80.30
2017-09-17T20:50:05.998Z,80.40
2017-09-17T20:52:34.375Z,80.20
2017-09-17T20:55:02.765Z,80.40
2017-09-17T20:57:31.373Z,80.60
2017-09-17T20:59:59.723Z,80.70
2017-09-17T21:02:28.098Z,82.00
2017-09-17T21:04:56.459Z,81.30
2017-09-17T21:07:25.617Z,80.50
2017-09-17T21:09:53.974Z,80.40
2017-09-17T21:12:22.339Z,80.70
2017-09-17T21:14:50.719Z,81.00
2017-09-17T21:17:19.111Z,82.00
2017-09-17T21:19:47.487Z,82.00
2017-09-17T21:22:16.045Z,82.10
2017-09-17T21:24:44.734Z,81.90
2017-09-17T21:27:13.123Z,81.90
2017-09-17T21:29:41.297Z,82.40
2017-09-17T21:32:09.889Z,82.40
2017-09-17T21:34:38.454Z,83.20
2017-09-17T21:37:06.913Z,83.50
2017-09-17T21:39:35.292Z,83.70
2017-09-17T21:42:03.666Z,83.60
2017-09-17T21:44:32.021Z,83.90
2017-09-17T21:47:01.152Z,84.70
2017-09-17T21:49:29.517Z,84.50
2017-09-17T21:51:57.885Z,84.40
2017-09-17T21:54:26.467Z,84.20
2017-09-17T21:56:54.945Z,84.00
2017-09-17T21:59:23.298Z,84.60
2017-09-17T22:01:52.437Z,84.60
2017-09-17T22:04:20.820Z,84.60
2017-09-17T22:06:49.195Z,85.20
2017-09-17T22:09:17.581Z,85.60
2017-09-17T22:11:45.967Z,86.00
2017-09-17T22:14:14.358Z,87.10
2017-09-17T22:16:42.568Z,86.80
2017-09-17T22:19:10.943Z,86.40
2017-09-17T22:21:39.313Z,86.90
2017-09-17T22:24:07.785Z,86.80
2017-09-17T22:26:36.142Z,86.80
2017-09-17T22:29:05.471Z,87.10
2017-09-17T22:31:33.949Z,86.90
2017-09-17T22:34:02.291Z,86.60
2017-09-17T22:36:30.664Z,86.50
2017-09-17T22:38:59.040Z,87.00
2017-09-17T22:41:27.391Z,87.10
2017-09-17T22:43:55.763Z,87.40
2017-09-17T22:46:24.121Z,87.10
2017-09-17T22:48:52.699Z,87.90
2017-09-17T22:51:21.034Z,87.70
2017-09-17T22:53:49.435Z,87.70
2017-09-17T22:56:17.787Z,88.00
2017-09-17T22:58:46.165Z,88.00
2017-09-17T23:01:14.564Z,87.80
2017-09-17T23:03:43.059Z,88.10
2017-09-17T23:06:11.522Z,88.10
2017-09-17T23:08:39.874Z,88.10
2017-09-17T23:11:09.211Z,87.70
2017-09-17T23:13:37.570Z,87.70
2017-09-17T23:16:06.050Z,87.40
2017-09-17T23:18:34.424Z,87.00
2017-09-17T23:21:02.816Z,87.20
2017-09-17T23:23:31.184Z,87.20
2017-09-17T23:25:59.561Z,87.30
2017-09-17T23:28:27.933Z,87.30
2017-09-17T23:30:56.285Z,87.00
2017-09-17T23:33:24.642Z,87.00
2017-09-17T23:35:53.778Z,87.40
2017-09-17T23:38:22.153Z,87.40
2017-09-17T23:40:50.526Z,87.40
2017-09-17T23:43:18.879Z,87.30
2017-09-17T23:45:47.234Z,87.00
2017-09-17T23:48:15.755Z,87.00
2017-09-17T23:50:44.205Z,86.70
2017-09-17T23:53:12.370Z,86.00
2017-09-17T23:55:40.730Z,85.80
2017-09-17T23:58:09.868Z,85.70
